createdAt,value
2023-04-07T00:01:40.782Z,8.33
2023-04-07T00:04:29.544Z,8.32
2023-04-07T00:07:18.116Z,8.28
2023-04-07T00:10:07.703Z,8.32
2023-04-07T00:12:56.230Z,8.50
2023-04-07T00:15:44.797Z,8.42
2023-04-07T00:18:34.743Z,8.32
2023-04-07T00:21:23.337Z,8.34
2023-04-07T00:24:14.408Z,8.30
2023-04-07T00:27:05.133Z,8.21
2023-04-07T00:29:55.385Z,8.21
2023-04-07T00:32:45.479Z,8.20
2023-04-07T00:35:35.838Z,8.17
2023-04-07T00:38:24.351Z,8.16
2023-04-07T00:41:12.882Z,8.21
2023-04-07T00:44:01.438Z,8.20
2023-04-07T00:46:50.015Z,8.17
2023-04-07T00:49:38.713Z,8.22
2023-04-07T00:52:30.061Z,8.23
2023-04-07T00:55:18.620Z,8.22
2023-04-07T00:58:07.192Z,8.37
2023-04-07T01:01:04.914Z,8.38
2023-04-07T01:03:55.780Z,8.24
2023-04-07T01:06:47.947Z,8.23
2023-04-07T01:09:44.340Z,8.17
2023-04-07T01:12:37.602Z,8.09
2023-04-07T01:15:29.070Z,8.06
2023-04-07T01:18:22.158Z,8.07
2023-04-07T01:21:12.643Z,8.13
2023-04-07T01:24:29.989Z,8.12
2023-04-07T01:27:25.772Z,8.06
2023-04-07T01:30:17.105Z,8.16
2023-04-07T01:33:06.477Z,8.13
2023-04-07T01:35:56.231Z,8.09
2023-04-07T01:38:46.048Z,8.07
2023-04-07T01:41:35.013Z,7.93
2023-04-07T01:44:23.911Z,8.12
2023-04-07T01:47:13.882Z,7.89
2023-04-07T01:50:03.974Z,8.10
2023-04-07T01:52:52.890Z,8.11
2023-04-07T01:55:41.518Z,8.04
2023-04-07T01:58:30.560Z,8.01
2023-04-07T02:01:19.291Z,8.10
2023-04-07T02:04:13.367Z,8.19
2023-04-07T02:07:05.768Z,8.12
2023-04-07T02:09:56.084Z,8.14
2023-04-07T02:12:45.624Z,8.07
2023-04-07T02:15:34.551Z,8.17
2023-04-07T02:18:24.020Z,7.92
2023-04-07T02:21:15.110Z,8.12
2023-04-07T02:24:05.878Z,8.03
2023-04-07T02:26:54.629Z,8.06
2023-04-07T02:29:43.116Z,8.14
2023-04-07T02:32:31.752Z,8.11
2023-04-07T02:35:20.479Z,8.08
2023-04-07T02:38:10.573Z,8.11
2023-04-07T02:40:59.488Z,8.18
2023-04-07T02:43:48.086Z,8.20
2023-04-07T02:46:36.712Z,8.05
2023-04-07T02:49:25.331Z,8.13
2023-04-07T02:52:13.907Z,8.04
2023-04-07T02:55:04.197Z,7.91
2023-04-07T02:57:52.755Z,7.92
2023-04-07T03:00:41.282Z,7.89
2023-04-07T03:03:29.968Z,7.88
2023-04-07T03:06:18.622Z,7.92
2023-04-07T03:09:07.264Z,7.94
2023-04-07T03:11:57.132Z,7.94
2023-04-07T03:14:45.814Z,7.97
2023-04-07T03:17:34.676Z,7.91
2023-04-07T03:20:23.211Z,7.97
2023-04-07T03:23:11.731Z,7.91
2023-04-07T03:26:00.307Z,7.85
2023-04-07T03:28:50.307Z,7.85
2023-04-07T03:31:38.829Z,7.84
2023-04-07T03:34:27.355Z,7.84
2023-04-07T03:37:15.898Z,7.86
2023-04-07T03:40:04.613Z,7.84
2023-04-07T03:42:53.184Z,7.80
2023-04-07T03:45:43.129Z,7.76
2023-04-07T03:48:31.999Z,7.72
2023-04-07T03:51:20.648Z,7.67
2023-04-07T03:54:09.209Z,7.61
2023-04-07T03:56:57.867Z,7.61
2023-04-07T03:59:47.470Z,7.55
2023-04-07T04:02:37.415Z,7.51
2023-04-07T04:05:25.966Z,7.50
2023-04-07T04:08:14.521Z,7.47
2023-04-07T04:11:03.032Z,7.43
2023-04-07T04:13:51.775Z,7.37
2023-04-07T04:16:40.823Z,7.33
2023-04-07T04:19:30.636Z,7.28
2023-04-07T04:22:19.302Z,7.23
2023-04-07T04:25:08.282Z,7.18
2023-04-07T04:27:56.918Z,7.22
2023-04-07T04:30:45.415Z,7.14
2023-04-07T04:33:33.962Z,7.21
2023-04-07T04:36:23.809Z,7.22
2023-04-07T04:39:12.567Z,7.25
2023-04-07T04:42:01.147Z,7.27
2023-04-07T04:44:49.862Z,7.26
2023-04-07T04:47:39.039Z,7.22
2023-04-07T04:50:27.789Z,7.14
2023-04-07T04:53:17.620Z,7.12
2023-04-07T04:56:07.079Z,7.04
2023-04-07T04:58:55.592Z,7.00
2023-04-07T05:01:44.252Z,7.07
2023-04-07T05:04:33.084Z,7.04
2023-04-07T05:07:21.752Z,7.06
2023-04-07T05:10:12.739Z,7.03
2023-04-07T05:13:01.312Z,7.04
2023-04-07T05:15:49.922Z,7.06
2023-04-07T05:18:38.497Z,7.06
2023-04-07T05:21:27.112Z,7.11
2023-04-07T05:24:15.626Z,7.52
2023-04-07T05:27:05.616Z,7.51
2023-04-07T05:29:54.161Z,7.47
2023-04-07T05:32:42.748Z,7.41
2023-04-07T05:35:31.360Z,7.34
2023-04-07T05:38:19.913Z,7.31
2023-04-07T05:41:08.451Z,7.31
2023-04-07T05:43:58.375Z,7.30
2023-04-07T05:46:46.944Z,7.27
2023-04-07T05:49:35.678Z,7.28
2023-04-07T05:52:24.236Z,7.28
2023-04-07T05:55:12.924Z,7.26
2023-04-07T05:58:01.411Z,7.11
2023-04-07T06:00:51.336Z,7.22
2023-04-07T06:03:41.255Z,7.13
2023-04-07T06:06:30.199Z,7.13
2023-04-07T06:09:18.684Z,7.21
2023-04-07T06:12:07.356Z,7.23
2023-04-07T06:14:56.576Z,7.29
2023-04-07T06:17:46.545Z,7.42
2023-04-07T06:20:35.763Z,7.53
2023-04-07T06:23:24.309Z,7.67
2023-04-07T06:26:13.111Z,7.69
2023-04-07T06:29:01.816Z,7.84
2023-04-07T06:31:50.411Z,7.84
2023-04-07T06:34:40.376Z,7.92
2023-04-07T06:37:28.933Z,8.10
2023-04-07T06:40:17.532Z,8.12
2023-04-07T06:43:06.209Z,8.33
2023-04-07T06:45:54.698Z,8.68
2023-04-07T06:48:43.188Z,9.15
2023-04-07T06:51:33.145Z,9.56
2023-04-07T06:54:21.658Z,9.99
2023-04-07T06:57:12.153Z,10.14
2023-04-07T07:00:00.743Z,10.44
2023-04-07T07:02:49.411Z,10.79
2023-04-07T07:05:38.002Z,10.90
2023-04-07T07:08:28.305Z,11.26
2023-04-07T07:11:17.007Z,11.48
2023-04-07T07:14:05.445Z,11.80
2023-04-07T07:16:53.916Z,12.40
2023-04-07T07:19:43.107Z,12.63
2023-04-07T07:22:31.919Z,12.80
2023-04-07T07:25:21.910Z,13.02
2023-04-07T07:28:10.456Z,13.24
2023-04-07T07:30:58.998Z,13.49
2023-04-07T07:33:49.115Z,13.77
2023-04-07T07:36:37.925Z,13.90
2023-04-07T07:39:26.783Z,13.61
2023-04-07T07:42:17.154Z,13.74
2023-04-07T07:45:06.618Z,13.71
2023-04-07T07:47:55.204Z,14.05
2023-04-07T07:50:44.525Z,14.15
2023-04-07T07:53:33.090Z,14.29
2023-04-07T07:56:21.610Z,14.49
2023-04-07T07:59:11.424Z,14.79
2023-04-07T08:02:00.237Z,14.55
2023-04-07T08:04:48.888Z,14.41
2023-04-07T08:07:37.685Z,14.49
2023-04-07T08:10:26.240Z,14.47
2023-04-07T08:13:14.706Z,14.62
2023-04-07T08:16:04.845Z,14.93
2023-04-07T08:18:53.470Z,15.02
2023-04-07T08:21:41.959Z,15.03
2023-04-07T08:24:30.661Z,15.24
2023-04-07T08:27:19.152Z,15.16
2023-04-07T08:30:08.617Z,15.53
2023-04-07T08:32:58.667Z,15.70
2023-04-07T08:35:47.424Z,15.80
2023-04-07T08:38:36.063Z,15.83
2023-04-07T08:41:30.494Z,15.81
2023-04-07T08:44:19.383Z,15.88
2023-04-07T08:47:08.764Z,16.01
2023-04-07T08:50:03.573Z,16.16
2023-04-07T08:52:55.686Z,16.38
2023-04-07T08:55:44.211Z,16.45
2023-04-07T08:58:32.712Z,16.20
2023-04-07T09:01:21.646Z,15.66
2023-04-07T09:04:11.440Z,15.03
2023-04-07T09:07:02.140Z,14.56
2023-04-07T09:09:50.951Z,14.17
2023-04-07T09:12:39.850Z,14.01
2023-04-07T09:15:31.660Z,13.79
2023-04-07T09:18:20.553Z,13.52
2023-04-07T09:21:09.094Z,13.67
2023-04-07T09:23:58.895Z,14.14
2023-04-07T09:26:47.445Z,14.47
2023-04-07T09:29:35.943Z,14.59
2023-04-07T09:32:38.664Z,14.44
2023-04-07T09:35:28.612Z,14.38
2023-04-07T09:38:17.545Z,14.72
2023-04-07T09:41:12.136Z,14.79
2023-04-07T09:44:00.581Z,15.00
2023-04-07T09:46:52.707Z,15.32
2023-04-07T09:49:50.422Z,15.01
2023-04-07T09:52:52.955Z,14.61
2023-04-07T09:55:42.601Z,14.29
2023-04-07T09:58:32.490Z,14.27
2023-04-07T10:01:22.841Z,14.55
2023-04-07T10:04:12.016Z,14.65
2023-04-07T10:07:01.185Z,14.69
2023-04-07T10:09:49.698Z,14.49
2023-04-07T10:12:38.923Z,14.33
2023-04-07T10:15:28.799Z,14.43
2023-04-07T10:18:19.038Z,14.49
2023-04-07T10:21:09.353Z,14.46
2023-04-07T10:24:02.456Z,14.67
2023-04-07T10:26:53.167Z,15.08
2023-04-07T10:29:42.932Z,15.61
2023-04-07T10:32:32.903Z,15.55
2023-04-07T10:35:22.367Z,15.66
2023-04-07T10:38:13.937Z,15.86
2023-04-07T10:41:36.291Z,16.10
2023-04-07T10:44:46.978Z,15.91
2023-04-07T10:47:37.879Z,15.58
2023-04-07T10:50:26.725Z,15.16
2023-04-07T10:53:16.376Z,14.88
2023-04-07T10:56:05.783Z,14.51
2023-04-07T10:59:15.369Z,14.44
2023-04-07T11:02:32.693Z,14.07
2023-04-07T11:05:23.950Z,13.63
2023-04-07T11:08:12.578Z,13.34
2023-04-07T11:11:01.355Z,13.30
2023-04-07T11:13:51.493Z,13.29
2023-04-07T11:16:42.754Z,13.36
2023-04-07T11:19:32.454Z,13.26
2023-04-07T11:22:30.001Z,13.28
2023-04-07T11:25:23.158Z,13.32
2023-04-07T11:28:13.067Z,13.33
2023-04-07T11:31:01.933Z,13.34
2023-04-07T11:33:54.829Z,13.39
2023-04-07T11:36:43.439Z,13.49
2023-04-07T11:39:35.176Z,13.49
2023-04-07T11:42:33.300Z,13.56
2023-04-07T11:45:22.150Z,13.57
2023-04-07T11:48:28.846Z,13.76
2023-04-07T11:51:18.358Z,14.25
2023-04-07T11:54:07.004Z,14.42
2023-04-07T11:56:56.930Z,14.82
2023-04-07T11:59:45.479Z,15.32
2023-04-07T12:02:34.794Z,15.58
2023-04-07T12:05:24.866Z,15.67
2023-04-07T12:08:14.851Z,15.77
2023-04-07T12:11:05.336Z,16.10
2023-04-07T12:13:56.136Z,16.30
2023-04-07T12:16:45.298Z,16.43
2023-04-07T12:19:34.874Z,15.98
2023-04-07T12:22:23.840Z,15.95
2023-04-07T12:25:12.301Z,15.71
2023-04-07T12:28:00.795Z,15.76
2023-04-07T12:30:50.979Z,15.82
2023-04-07T12:33:39.506Z,15.53
2023-04-07T12:36:29.387Z,15.22
2023-04-07T12:39:17.961Z,15.32
2023-04-07T12:42:07.643Z,15.03
2023-04-07T12:44:56.684Z,14.63
2023-04-07T12:47:47.010Z,14.68
2023-04-07T12:50:36.427Z,14.60
2023-04-07T12:53:24.964Z,14.81
2023-04-07T12:56:13.898Z,15.15
2023-04-07T12:59:02.391Z,15.05
2023-04-07T13:01:51.538Z,14.95
2023-04-07T13:04:43.531Z,14.57
2023-04-07T13:07:32.109Z,14.58
2023-04-07T13:10:21.309Z,14.24
2023-04-07T13:13:09.840Z,13.78
2023-04-07T13:15:58.457Z,13.88
2023-04-07T13:18:47.204Z,14.00
2023-04-07T13:21:46.183Z,14.01
2023-04-07T13:24:36.812Z,14.08
2023-04-07T13:27:25.356Z,14.27
2023-04-07T13:30:14.611Z,14.54
2023-04-07T13:33:03.195Z,14.59
2023-04-07T13:35:51.818Z,14.67
2023-04-07T13:38:42.376Z,14.67
2023-04-07T13:41:31.758Z,14.93
2023-04-07T13:44:20.726Z,14.91
2023-04-07T13:47:09.269Z,14.95
2023-04-07T13:49:57.876Z,14.89
2023-04-07T13:52:46.719Z,14.94
2023-04-07T13:55:36.695Z,14.86
2023-04-07T13:58:25.375Z,14.84
2023-04-07T14:01:13.952Z,14.76
2023-04-07T14:04:02.877Z,14.78
2023-04-07T14:06:51.661Z,14.90
2023-04-07T14:09:40.423Z,15.02
2023-04-07T14:12:30.328Z,15.24
2023-04-07T14:15:18.780Z,15.20
2023-04-07T14:18:07.400Z,15.09
2023-04-07T14:20:56.037Z,14.93
2023-04-07T14:23:44.594Z,14.74
2023-04-07T14:26:33.120Z,14.52
2023-04-07T14:29:23.643Z,14.38
2023-04-07T14:32:12.174Z,14.25
2023-04-07T14:35:01.360Z,14.07
2023-04-07T14:37:49.865Z,13.83
2023-04-07T14:40:38.446Z,13.90
2023-04-07T14:43:27.772Z,13.86
2023-04-07T14:46:17.785Z,13.84
2023-04-07T14:49:06.445Z,13.68
2023-04-07T14:51:55.045Z,13.86
2023-04-07T14:54:43.591Z,13.82
2023-04-07T14:57:32.090Z,13.71
2023-04-07T15:00:20.873Z,13.71
2023-04-07T15:03:11.295Z,13.71
2023-04-07T15:06:00.392Z,13.75
2023-04-07T15:08:48.935Z,13.73
2023-04-07T15:11:37.523Z,13.70
2023-04-07T15:14:26.147Z,13.75
2023-04-07T15:17:14.696Z,13.57
2023-04-07T15:20:04.797Z,13.61
2023-04-07T15:22:53.316Z,13.54
2023-04-07T15:25:41.851Z,13.49
2023-04-07T15:28:30.478Z,13.55
2023-04-07T15:31:21.442Z,13.41
2023-04-07T15:34:10.034Z,13.30
2023-04-07T15:37:02.179Z,13.37
2023-04-07T15:39:52.270Z,13.26
2023-04-07T15:42:42.053Z,13.28
2023-04-07T15:45:30.758Z,13.36
2023-04-07T15:48:19.427Z,12.96
2023-04-07T15:51:07.995Z,13.44
2023-04-07T15:53:57.858Z,13.50
2023-04-07T15:56:46.409Z,13.65
2023-04-07T15:59:36.251Z,13.86
2023-04-07T16:02:25.065Z,13.83
2023-04-07T16:05:13.873Z,13.87
2023-04-07T16:08:02.712Z,13.84
2023-04-07T16:10:52.895Z,13.89
2023-04-07T16:13:41.366Z,13.74
2023-04-07T16:16:32.243Z,13.76
2023-04-07T16:19:21.640Z,13.66
2023-04-07T16:22:10.448Z,13.69
2023-04-07T16:24:58.928Z,13.49
2023-04-07T16:27:48.854Z,13.27
2023-04-07T16:30:37.348Z,13.29
2023-04-07T16:33:28.088Z,13.33
2023-04-07T16:36:16.636Z,13.30
2023-04-07T16:39:05.371Z,13.17
2023-04-07T16:41:53.876Z,13.08
2023-04-07T16:44:43.698Z,13.02
2023-04-07T16:47:33.116Z,12.98
2023-04-07T16:50:21.881Z,12.56
2023-04-07T16:53:10.497Z,12.82
2023-04-07T16:55:58.988Z,12.66
2023-04-07T16:58:47.737Z,12.62
2023-04-07T17:01:41.947Z,12.57
2023-04-07T17:04:30.892Z,12.51
2023-04-07T17:07:20.048Z,12.38
2023-04-07T17:10:09.875Z,12.44
2023-04-07T17:12:58.402Z,12.38
2023-04-07T17:15:47.118Z,12.32
2023-04-07T17:18:36.991Z,12.25
2023-04-07T17:21:26.126Z,12.16
2023-04-07T17:24:20.938Z,12.18
2023-04-07T17:27:09.570Z,12.10
2023-04-07T17:29:58.208Z,12.10
2023-04-07T17:32:46.771Z,12.03
2023-04-07T17:35:36.943Z,12.01
2023-04-07T17:38:25.592Z,12.00
2023-04-07T17:41:14.358Z,11.99
2023-04-07T17:44:03.134Z,12.00
2023-04-07T17:46:51.758Z,11.98
2023-04-07T17:49:40.604Z,11.88
2023-04-07T17:52:30.696Z,12.01
2023-04-07T17:55:19.624Z,11.91
2023-04-07T17:58:08.336Z,11.77
2023-04-07T18:00:57.074Z,11.78
2023-04-07T18:03:45.738Z,11.80
2023-04-07T18:06:35.000Z,11.68
2023-04-07T18:09:26.793Z,11.76
2023-04-07T18:12:15.327Z,11.74
2023-04-07T18:15:04.595Z,11.69
2023-04-07T18:17:54.967Z,11.69
2023-04-07T18:20:43.564Z,11.68
2023-04-07T18:23:32.160Z,11.65
2023-04-07T18:26:22.428Z,11.69
2023-04-07T18:29:11.765Z,11.65
2023-04-07T18:32:00.470Z,11.60
2023-04-07T18:34:49.044Z,11.60
2023-04-07T18:37:37.690Z,11.36
2023-04-07T18:40:26.412Z,11.60
2023-04-07T18:43:17.377Z,11.59
2023-04-07T18:46:06.447Z,11.34
2023-04-07T18:48:54.965Z,11.55
2023-04-07T18:51:44.563Z,11.54
2023-04-07T18:54:33.102Z,11.53
2023-04-07T18:57:21.852Z,11.55
2023-04-07T19:00:12.397Z,11.54
2023-04-07T19:03:01.134Z,11.51
2023-04-07T19:05:52.540Z,11.53
2023-04-07T19:08:41.381Z,11.47
2023-04-07T19:11:29.948Z,11.51
2023-04-07T19:14:18.488Z,11.50
2023-04-07T19:17:08.439Z,11.46
2023-04-07T19:19:56.990Z,11.40
2023-04-07T19:22:45.592Z,11.42
2023-04-07T19:25:34.907Z,11.40
2023-04-07T19:28:23.540Z,11.41
2023-04-07T19:31:12.157Z,11.38
2023-04-07T19:34:02.084Z,11.36
2023-04-07T19:36:50.640Z,11.34
2023-04-07T19:39:40.196Z,11.37
2023-04-07T19:42:29.738Z,11.30
2023-04-07T19:45:18.903Z,11.30
2023-04-07T19:48:07.933Z,11.34
2023-04-07T19:50:57.887Z,11.33
2023-04-07T19:53:46.833Z,11.35
2023-04-07T19:56:35.605Z,11.32
2023-04-07T19:59:24.081Z,11.31
2023-04-07T20:02:12.764Z,11.28
2023-04-07T20:05:01.382Z,11.19
2023-04-07T20:07:51.485Z,11.23
2023-04-07T20:10:40.018Z,11.20
2023-04-07T20:13:31.655Z,11.20
2023-04-07T20:16:20.485Z,11.24
2023-04-07T20:19:09.061Z,11.21
2023-04-07T20:21:57.653Z,11.20
2023-04-07T20:24:47.559Z,11.19
2023-04-07T20:27:36.151Z,11.16
2023-04-07T20:30:24.893Z,11.19
2023-04-07T20:33:14.037Z,11.16
2023-04-07T20:36:02.604Z,11.18
2023-04-07T20:38:51.449Z,11.11
2023-04-07T20:41:42.851Z,11.08
2023-04-07T20:44:31.604Z,11.09
2023-04-07T20:47:20.105Z,10.96
2023-04-07T20:50:09.805Z,10.86
2023-04-07T20:52:58.655Z,10.81
2023-04-07T20:55:47.346Z,10.76
2023-04-07T20:58:37.260Z,10.74
2023-04-07T21:01:25.990Z,10.76
2023-04-07T21:04:14.814Z,10.78
2023-04-07T21:07:03.460Z,10.77
2023-04-07T21:09:51.953Z,10.71
2023-04-07T21:12:40.434Z,10.72
2023-04-07T21:15:30.672Z,10.72
2023-04-07T21:18:19.559Z,10.72
2023-04-07T21:21:08.564Z,10.69
2023-04-07T21:23:57.035Z,10.66
2023-04-07T21:26:45.563Z,10.63
2023-04-07T21:29:34.082Z,10.67
2023-04-07T21:32:25.011Z,10.61
2023-04-07T21:35:13.589Z,10.63
2023-04-07T21:38:02.077Z,10.59
2023-04-07T21:40:50.690Z,10.55
2023-04-07T21:43:39.428Z,10.54
2023-04-07T21:46:28.938Z,10.50
2023-04-07T21:49:22.090Z,10.45
2023-04-07T21:52:10.747Z,10.50
2023-04-07T21:54:59.231Z,10.51
2023-04-07T21:57:47.849Z,10.50
2023-04-07T22:00:38.277Z,10.49
2023-04-07T22:03:26.947Z,10.46
2023-04-07T22:06:17.069Z,10.45
2023-04-07T22:09:06.689Z,10.34
2023-04-07T22:11:55.988Z,10.42
2023-04-07T22:14:45.185Z,10.48
2023-04-07T22:17:33.809Z,10.45
2023-04-07T22:20:22.310Z,10.42
2023-04-07T22:23:12.166Z,10.33
2023-04-07T22:26:00.712Z,10.37
2023-04-07T22:28:49.367Z,10.34
2023-04-07T22:31:37.980Z,10.28
2023-04-07T22:34:26.476Z,10.41
2023-04-07T22:37:14.948Z,10.42
2023-04-07T22:40:05.680Z,10.39
2023-04-07T22:42:54.231Z,10.40
2023-04-07T22:45:42.889Z,10.41
2023-04-07T22:48:31.372Z,10.40
2023-04-07T22:51:19.884Z,10.39
2023-04-07T22:54:08.349Z,10.37
2023-04-07T22:56:58.202Z,10.34
2023-04-07T22:59:46.646Z,10.36
2023-04-07T23:02:35.433Z,10.36
2023-04-07T23:05:24.102Z,10.37
2023-04-07T23:08:12.655Z,10.36
2023-04-07T23:11:01.187Z,10.32
2023-04-07T23:13:51.270Z,10.33
2023-04-07T23:16:39.887Z,10.30
2023-04-07T23:19:28.419Z,10.26
2023-04-07T23:22:16.977Z,10.22
2023-04-07T23:25:06.887Z,10.27
2023-04-07T23:27:55.456Z,10.25
2023-04-07T23:30:45.502Z,10.20
2023-04-07T23:33:33.990Z,10.10
2023-04-07T23:36:22.586Z,10.16
2023-04-07T23:39:11.353Z,10.19
2023-04-07T23:42:00.123Z,10.17
2023-04-07T23:44:48.657Z,10.17
2023-04-07T23:47:38.600Z,10.17
2023-04-07T23:50:27.804Z,10.16
2023-04-07T23:53:16.440Z,10.18
2023-04-07T23:56:05.000Z,9.96
2023-04-07T23:58:53.990Z,10.13
